createdAt,value
2019-02-25T00:00:25.404Z,409.17
2019-02-25T00:03:02.190Z,415.63
2019-02-25T00:05:52.747Z,365.17
2019-02-25T00:08:24.900Z,418.47
2019-02-25T00:10:52.697Z,387.43
2019-02-25T00:13:20.494Z,382.50
2019-02-25T00:15:48.269Z,381.40
2019-02-25T00:18:16.779Z,379.23
2019-02-25T00:20:44.390Z,391.20
2019-02-25T00:23:12.170Z,379.47
2019-02-25T00:25:39.796Z,374.33
2019-02-25T00:28:07.476Z,369.33
2019-02-25T00:30:37.624Z,387.07
2019-02-25T00:33:05.575Z,382.93
2019-02-25T00:35:33.521Z,371.47
2019-02-25T00:38:02.124Z,374.10
2019-02-25T00:40:29.852Z,371.43
2019-02-25T00:42:57.537Z,341.37
2019-02-25T00:45:25.175Z,382.53
2019-02-25T00:47:55.934Z,357.00
2019-02-25T00:50:24.048Z,363.87
2019-02-25T00:52:51.764Z,351.70
2019-02-25T00:55:20.356Z,349.07
2019-02-25T00:57:48.476Z,356.93
2019-02-25T01:00:17.371Z,354.20
2019-02-25T01:02:45.283Z,373.90
2019-02-25T01:05:13.724Z,361.77
2019-02-25T01:07:41.448Z,352.83
2019-02-25T01:10:09.510Z,349.73
2019-02-25T01:12:37.065Z,344.10
2019-02-25T01:15:08.989Z,347.53
2019-02-25T01:17:36.766Z,342.67
2019-02-25T01:20:04.781Z,342.47
2019-02-25T01:22:32.365Z,394.43
2019-02-25T01:24:59.909Z,419.90
2019-02-25T01:27:27.390Z,424.13
2019-02-25T01:29:55.084Z,421.10
2019-02-25T01:32:22.810Z,407.47
2019-02-25T01:34:50.353Z,426.93
2019-02-25T01:37:17.969Z,395.17
2019-02-25T01:39:45.775Z,416.07
2019-02-25T01:42:15.342Z,418.83
2019-02-25T01:44:43.006Z,412.13
2019-02-25T01:47:11.123Z,404.60
2019-02-25T01:49:38.880Z,408.57
2019-02-25T01:52:06.545Z,393.77
2019-02-25T01:54:34.206Z,431.23
2019-02-25T01:57:02.015Z,394.33
2019-02-25T01:59:29.525Z,440.37
2019-02-25T02:01:56.978Z,394.77
2019-02-25T02:04:24.755Z,430.50
2019-02-25T02:06:54.173Z,390.57
2019-02-25T02:09:22.015Z,419.20
2019-02-25T02:11:49.490Z,399.10
2019-02-25T02:14:16.933Z,436.67
2019-02-25T02:16:44.453Z,394.33
2019-02-25T02:19:12.041Z,402.03
2019-02-25T02:21:39.738Z,401.07
2019-02-25T02:24:07.580Z,421.87
2019-02-25T02:26:35.104Z,381.10
2019-02-25T02:29:02.896Z,410.33
2019-02-25T02:31:30.355Z,357.50
2019-02-25T02:33:58.006Z,356.53
2019-02-25T02:36:25.727Z,391.00
2019-02-25T02:38:53.335Z,346.57
2019-02-25T02:41:20.728Z,358.33
2019-02-25T02:43:48.895Z,361.97
2019-02-25T02:47:06.711Z,357.50
2019-02-25T02:49:34.322Z,369.70
2019-02-25T02:52:01.846Z,329.30
2019-02-25T02:54:29.416Z,379.87
2019-02-25T02:56:57.170Z,327.37
2019-02-25T02:59:24.665Z,359.00
2019-02-25T03:01:52.199Z,339.13
2019-02-25T03:04:19.702Z,404.47
2019-02-25T03:06:47.183Z,366.77
2019-02-25T03:09:14.794Z,392.17
2019-02-25T03:11:42.517Z,342.73
2019-02-25T03:14:10.085Z,365.20
2019-02-25T03:16:37.591Z,345.30
2019-02-25T03:19:05.177Z,365.83
2019-02-25T03:21:32.617Z,351.77
2019-02-25T03:24:00.901Z,391.03
2019-02-25T03:26:28.329Z,353.90
2019-02-25T03:28:55.717Z,358.33
2019-02-25T03:31:23.185Z,351.40
2019-02-25T03:33:50.602Z,335.87
2019-02-25T03:36:18.084Z,364.40
2019-02-25T03:38:45.598Z,321.93
2019-02-25T03:41:13.054Z,335.60
2019-02-25T03:43:40.681Z,305.47
2019-02-25T03:46:08.278Z,331.13
2019-02-25T03:48:35.724Z,327.30
2019-02-25T03:51:03.277Z,328.23
2019-02-25T03:53:30.714Z,329.67
2019-02-25T03:55:58.353Z,343.57
2019-02-25T03:58:25.798Z,358.27
2019-02-25T04:00:53.686Z,317.43
2019-02-25T04:03:21.265Z,330.80
2019-02-25T04:05:48.943Z,305.33
2019-02-25T04:08:16.524Z,300.60
2019-02-25T04:10:44.151Z,315.13
2019-02-25T04:13:11.495Z,332.70
2019-02-25T04:15:41.660Z,326.77
2019-02-25T04:18:09.142Z,317.67
2019-02-25T04:20:36.664Z,327.30
2019-02-25T04:23:04.129Z,301.33
2019-02-25T04:25:31.590Z,319.50
2019-02-25T04:28:00.225Z,311.27
2019-02-25T04:30:27.792Z,316.77
2019-02-25T04:32:55.149Z,377.87
2019-02-25T04:35:22.816Z,338.20
2019-02-25T04:37:50.218Z,337.07
2019-02-25T04:40:17.658Z,317.30
2019-02-25T04:42:45.075Z,339.77
2019-02-25T04:45:14.962Z,333.53
2019-02-25T04:47:42.550Z,316.17
2019-02-25T04:50:10.923Z,323.00
2019-02-25T04:52:38.319Z,338.00
2019-02-25T04:55:06.488Z,328.97
2019-02-25T04:57:33.869Z,306.00
2019-02-25T05:00:02.438Z,339.90
2019-02-25T05:02:30.235Z,328.87
2019-02-25T05:04:57.786Z,365.73
2019-02-25T05:07:25.239Z,320.03
2019-02-25T05:09:52.681Z,349.17
2019-02-25T05:12:20.013Z,329.93
2019-02-25T05:14:48.692Z,373.13
2019-02-25T05:17:16.156Z,318.57
2019-02-25T05:19:43.650Z,353.53
2019-02-25T05:22:11.011Z,323.90
2019-02-25T05:24:39.116Z,358.53
2019-02-25T05:27:06.766Z,324.40
2019-02-25T05:29:34.263Z,341.03
2019-02-25T05:32:01.794Z,314.33
2019-02-25T05:34:29.557Z,340.87
2019-02-25T05:36:57.016Z,329.43
2019-02-25T05:39:24.534Z,362.27
2019-02-25T05:41:51.860Z,386.67
2019-02-25T05:44:19.518Z,375.23
2019-02-25T05:46:47.072Z,341.73
2019-02-25T05:49:14.571Z,368.13
2019-02-25T05:51:41.883Z,329.00
2019-02-25T05:54:09.342Z,385.57
2019-02-25T05:56:37.485Z,316.40
2019-02-25T05:59:05.079Z,349.73
2019-02-25T06:01:32.457Z,319.37
2019-02-25T06:03:59.817Z,340.27
2019-02-25T06:06:27.450Z,318.27
2019-02-25T06:08:54.826Z,311.53
2019-02-25T06:11:22.220Z,308.33
2019-02-25T06:13:50.768Z,327.27
2019-02-25T06:16:18.189Z,335.90
2019-02-25T06:18:46.230Z,368.07
2019-02-25T06:21:14.438Z,309.37
2019-02-25T06:23:41.956Z,355.80
2019-02-25T06:26:09.332Z,317.10
2019-02-25T06:28:36.708Z,326.80
2019-02-25T06:31:04.362Z,345.77
2019-02-25T06:33:31.845Z,332.03
2019-02-25T06:35:59.143Z,352.47
2019-02-25T06:38:26.505Z,332.07
2019-02-25T06:40:53.954Z,334.93
2019-02-25T06:43:21.524Z,355.43
2019-02-25T06:45:49.066Z,349.93
2019-02-25T06:48:16.574Z,352.17
2019-02-25T06:50:44.022Z,345.77
2019-02-25T06:53:11.401Z,347.80
2019-02-25T06:55:40.012Z,333.47
2019-02-25T06:58:07.455Z,351.67
2019-02-25T07:00:35.058Z,309.17
2019-02-25T07:03:02.602Z,351.20
2019-02-25T07:06:04.733Z,339.47
2019-02-25T07:08:47.652Z,326.47
2019-02-25T07:11:23.266Z,337.43
2019-02-25T07:14:05.825Z,319.33
2019-02-25T07:16:52.830Z,327.87
2019-02-25T07:19:39.969Z,368.27
2019-02-25T07:22:32.709Z,327.67
2019-02-25T07:25:14.253Z,364.93
2019-02-25T07:27:59.637Z,389.33
2019-02-25T07:31:04.941Z,330.83
2019-02-25T07:33:40.866Z,359.30
2019-02-25T07:36:19.080Z,348.27
2019-02-25T07:39:11.860Z,347.80
2019-02-25T07:41:52.617Z,325.93
2019-02-25T07:44:30.828Z,358.73
2019-02-25T07:47:26.995Z,351.10
2019-02-25T07:50:05.272Z,340.33
2019-02-25T07:52:43.220Z,318.27
2019-02-25T07:55:39.261Z,345.83
2019-02-25T07:58:32.295Z,329.20
2019-02-25T08:01:05.381Z,283.03
2019-02-25T08:04:03.164Z,296.00
2019-02-25T08:06:46.235Z,284.63
2019-02-25T08:09:39.658Z,309.50
2019-02-25T08:12:23.590Z,310.73
2019-02-25T08:15:09.136Z,311.87
2019-02-25T08:17:52.814Z,294.23
2019-02-25T08:20:40.304Z,318.03
2019-02-25T08:23:30.983Z,322.47
2019-02-25T08:26:13.722Z,282.70
2019-02-25T08:29:03.381Z,304.40
2019-02-25T08:31:48.264Z,314.23
2019-02-25T08:34:51.184Z,289.87
2019-02-25T08:38:08.486Z,314.87
2019-02-25T08:40:55.206Z,286.07
2019-02-25T08:43:37.030Z,340.47
2019-02-25T08:46:27.642Z,315.93
2019-02-25T08:49:05.383Z,323.17
2019-02-25T08:51:38.488Z,316.30
2019-02-25T08:54:08.418Z,333.97
2019-02-25T08:56:36.112Z,304.03
2019-02-25T08:59:04.273Z,327.30
2019-02-25T09:01:34.519Z,317.43
2019-02-25T09:04:02.462Z,310.23
2019-02-25T09:06:30.288Z,285.70
2019-02-25T09:08:58.157Z,319.93
2019-02-25T09:11:26.696Z,300.00
2019-02-25T09:13:55.828Z,321.20
2019-02-25T09:16:24.850Z,316.63
2019-02-25T09:18:54.156Z,307.63
2019-02-25T09:21:31.415Z,324.20
2019-02-25T09:23:56.368Z,345.30
2019-02-25T09:26:32.127Z,287.27
2019-02-25T09:29:04.180Z,325.30
2019-02-25T09:31:38.953Z,311.10
2019-02-25T09:34:08.369Z,327.73
2019-02-25T09:36:40.191Z,302.73
2019-02-25T09:39:16.665Z,338.83
2019-02-25T09:41:58.291Z,302.70
2019-02-25T09:44:29.959Z,323.97
2019-02-25T09:47:10.952Z,318.27
2019-02-25T09:49:40.610Z,366.33
2019-02-25T09:52:08.391Z,337.40
2019-02-25T09:54:44.484Z,313.40
2019-02-25T09:57:17.649Z,308.23
2019-02-25T09:59:49.679Z,315.47
2019-02-25T10:02:19.681Z,295.10
2019-02-25T10:04:49.023Z,322.57
2019-02-25T10:07:19.107Z,327.30
2019-02-25T10:09:48.445Z,315.73
2019-02-25T10:12:17.833Z,311.27
2019-02-25T10:14:49.440Z,330.93
2019-02-25T10:17:23.975Z,294.17
2019-02-25T10:19:59.512Z,357.40
2019-02-25T10:22:32.783Z,298.57
2019-02-25T10:25:01.572Z,323.67
2019-02-25T10:27:30.881Z,323.00
2019-02-25T10:30:04.175Z,322.77
2019-02-25T10:32:39.255Z,325.50
2019-02-25T10:35:10.795Z,311.10
2019-02-25T10:38:07.193Z,311.13
2019-02-25T10:40:47.282Z,308.23
2019-02-25T10:43:13.558Z,353.13
2019-02-25T10:45:48.488Z,291.47
2019-02-25T10:48:19.852Z,304.30
2019-02-25T10:50:55.922Z,282.17
2019-02-25T10:53:22.117Z,288.43
2019-02-25T10:56:01.023Z,323.70
2019-02-25T10:58:31.714Z,303.43
2019-02-25T11:01:02.700Z,303.73
2019-02-25T11:03:35.181Z,299.60
2019-02-25T11:06:05.670Z,298.87
2019-02-25T11:08:45.684Z,303.57
2019-02-25T11:11:21.000Z,310.23
2019-02-25T11:13:52.268Z,313.03
2019-02-25T11:16:22.984Z,305.00
2019-02-25T11:19:33.002Z,302.27
2019-02-25T11:22:48.544Z,281.37
2019-02-25T11:25:19.269Z,283.37
2019-02-25T11:27:50.213Z,278.73
2019-02-25T11:30:21.225Z,283.93
2019-02-25T11:32:56.186Z,292.07
2019-02-25T11:35:24.709Z,302.40
2019-02-25T11:37:58.465Z,305.90
2019-02-25T11:40:28.401Z,291.10
2019-02-25T11:43:02.690Z,288.67
2019-02-25T11:45:33.498Z,281.23
2019-02-25T11:48:09.170Z,293.13
2019-02-25T11:50:41.902Z,273.57
2019-02-25T11:53:12.332Z,288.63
2019-02-25T11:55:42.722Z,268.93
2019-02-25T11:58:11.651Z,321.37
2019-02-25T12:00:42.658Z,294.47
2019-02-25T12:03:12.535Z,290.47
2019-02-25T12:05:41.951Z,300.63
2019-02-25T12:08:19.432Z,293.13
2019-02-25T12:11:38.628Z,272.53
2019-02-25T12:14:14.595Z,294.37
2019-02-25T12:16:45.199Z,287.47
2019-02-25T12:19:23.431Z,303.53
2019-02-25T12:22:20.151Z,274.23
2019-02-25T12:24:50.493Z,286.17
2019-02-25T12:27:25.296Z,284.43
2019-02-25T12:30:27.596Z,275.17
2019-02-25T12:32:59.843Z,274.63
2019-02-25T12:35:49.312Z,289.27
2019-02-25T12:38:42.482Z,281.13
2019-02-25T12:41:31.468Z,282.33
2019-02-25T12:44:11.948Z,277.80
2019-02-25T12:51:07.814Z,300.87
2019-02-25T12:54:46.409Z,283.90
2019-02-25T12:57:31.987Z,287.37
2019-02-25T13:00:10.229Z,295.73
2019-02-25T13:02:40.012Z,280.43
2019-02-25T13:05:12.469Z,266.60
2019-02-25T13:07:50.348Z,284.67
2019-02-25T13:10:23.264Z,287.17
2019-02-25T13:12:54.558Z,284.53
2019-02-25T13:15:38.084Z,268.57
2019-02-25T13:18:45.168Z,274.93
2019-02-25T13:21:28.833Z,292.83
2019-02-25T13:24:10.970Z,279.37
2019-02-25T13:26:45.643Z,285.73
2019-02-25T13:29:22.661Z,307.33
2019-02-25T13:31:55.600Z,287.43
2019-02-25T13:34:27.991Z,291.03
2019-02-25T13:37:30.657Z,277.53
2019-02-25T13:40:10.128Z,307.97
2019-02-25T13:46:58.961Z,264.33
2019-02-25T13:49:35.067Z,303.30
2019-02-25T13:52:18.489Z,281.17
2019-02-25T13:54:48.043Z,307.20
2019-02-25T13:57:18.232Z,276.07
2019-02-25T13:59:55.651Z,348.23
2019-02-25T14:02:42.918Z,273.87
2019-02-25T14:05:23.987Z,285.00
2019-02-25T14:08:22.794Z,278.63
2019-02-25T14:10:54.153Z,275.63
2019-02-25T14:13:36.375Z,276.60
2019-02-25T14:16:42.681Z,280.80
2019-02-25T14:19:19.908Z,294.20
2019-02-25T14:22:06.264Z,285.53
2019-02-25T14:24:59.424Z,301.97
2019-02-25T14:27:50.948Z,278.87
2019-02-25T14:30:24.198Z,294.10
2019-02-25T14:32:59.777Z,294.10
2019-02-25T14:35:54.356Z,297.67
2019-02-25T14:38:32.158Z,285.03
2019-02-25T14:41:31.541Z,279.27
2019-02-25T14:44:16.528Z,289.50
2019-02-25T14:47:20.555Z,281.37
2019-02-25T14:49:49.203Z,290.87
2019-02-25T14:52:19.834Z,289.53
2019-02-25T14:54:49.902Z,401.03
2019-02-25T14:57:20.285Z,363.77
2019-02-25T14:59:47.488Z,399.40
2019-02-25T15:02:15.755Z,382.80
2019-02-25T15:04:43.903Z,386.77
2019-02-25T15:07:13.530Z,406.53
2019-02-25T15:09:43.585Z,381.50
2019-02-25T15:12:14.940Z,378.03
2019-02-25T15:14:42.975Z,391.83
2019-02-25T15:17:12.651Z,378.57
2019-02-25T15:19:41.190Z,410.60
2019-02-25T15:22:11.210Z,384.17
2019-02-25T15:24:38.914Z,383.57
2019-02-25T15:27:07.254Z,353.27
2019-02-25T15:29:37.101Z,402.63
2019-02-25T15:32:05.309Z,385.57
2019-02-25T15:34:32.857Z,383.63
2019-02-25T15:37:00.715Z,364.53
2019-02-25T15:39:29.985Z,404.27
2019-02-25T15:41:57.829Z,369.90
2019-02-25T15:44:26.921Z,459.47
2019-02-25T15:46:55.064Z,390.67
2019-02-25T15:49:24.425Z,400.40
2019-02-25T15:51:52.978Z,367.83
2019-02-25T15:54:20.862Z,402.00
2019-02-25T15:56:48.863Z,367.70
2019-02-25T15:59:16.495Z,405.10
2019-02-25T16:01:44.682Z,375.17
2019-02-25T16:04:13.469Z,410.60
2019-02-25T16:06:41.280Z,369.97
2019-02-25T16:09:09.375Z,387.70
2019-02-25T16:11:39.337Z,372.47
2019-02-25T16:14:09.718Z,406.27
2019-02-25T16:16:37.697Z,347.00
2019-02-25T16:19:05.985Z,388.97
2019-02-25T16:21:33.894Z,343.03
2019-02-25T16:24:04.196Z,396.53
2019-02-25T16:26:32.089Z,373.63
2019-02-25T16:29:04.628Z,381.67
2019-02-25T16:31:33.202Z,349.27
2019-02-25T16:34:02.656Z,402.47
2019-02-25T16:36:31.118Z,377.27
2019-02-25T16:39:00.427Z,399.53
2019-02-25T16:41:32.337Z,379.07
2019-02-25T16:44:02.073Z,388.33
2019-02-25T16:46:30.049Z,382.30
2019-02-25T16:48:57.737Z,382.30
2019-02-25T16:51:25.868Z,398.80
2019-02-25T16:53:55.141Z,408.63
2019-02-25T16:57:43.845Z,399.93
2019-02-25T17:00:14.729Z,372.93
2019-02-25T17:02:44.750Z,365.33
2019-02-25T17:06:06.779Z,365.10
2019-02-25T17:08:35.434Z,405.13
2019-02-25T17:11:02.998Z,411.43
2019-02-25T17:13:33.066Z,376.40
2019-02-25T17:16:02.754Z,387.60
2019-02-25T17:18:36.839Z,380.27
2019-02-25T17:21:05.118Z,396.57
2019-02-25T17:23:34.507Z,378.90
2019-02-25T17:26:07.388Z,383.90
2019-02-25T17:28:33.606Z,393.73
2019-02-25T17:31:48.605Z,349.30
2019-02-25T17:34:16.992Z,420.10
2019-02-25T17:36:47.348Z,396.37
2019-02-25T17:39:17.117Z,477.27
2019-02-25T17:41:44.882Z,399.10
2019-02-25T17:44:12.461Z,415.03
2019-02-25T17:46:43.354Z,407.67
2019-02-25T17:49:12.254Z,417.83
2019-02-25T17:51:40.462Z,404.97
2019-02-25T17:54:10.125Z,426.30
2019-02-25T17:56:37.897Z,414.40
2019-02-25T17:59:07.552Z,432.67
2019-02-25T18:01:36.033Z,429.33
2019-02-25T18:04:06.474Z,430.13
2019-02-25T18:06:34.414Z,443.63
2019-02-25T18:09:06.924Z,472.83
2019-02-25T18:11:39.074Z,433.00
2019-02-25T18:14:09.528Z,464.33
2019-02-25T18:16:39.169Z,438.73
2019-02-25T18:19:11.672Z,488.43
2019-02-25T18:21:43.021Z,426.80
2019-02-25T18:24:10.019Z,455.03
2019-02-25T18:26:40.027Z,475.73
2019-02-25T18:29:09.389Z,443.03
2019-02-25T18:31:37.676Z,438.30
2019-02-25T18:34:06.958Z,443.57
2019-02-25T18:36:36.421Z,435.30
2019-02-25T18:39:11.530Z,491.60
2019-02-25T18:45:02.709Z,432.57
2019-02-25T18:47:32.105Z,431.40
2019-02-25T18:50:00.935Z,439.63
2019-02-25T18:52:31.967Z,416.27
2019-02-25T18:55:02.816Z,455.93
2019-02-25T18:57:31.106Z,405.07
2019-02-25T18:59:59.430Z,431.60
2019-02-25T19:02:28.503Z,434.13
2019-02-25T19:04:58.254Z,477.33
2019-02-25T19:07:27.250Z,433.10
2019-02-25T19:09:58.075Z,427.87
2019-02-25T19:12:26.361Z,421.77
2019-02-25T19:14:55.730Z,441.87
2019-02-25T19:17:25.169Z,417.70
2019-02-25T19:19:53.040Z,446.87
2019-02-25T19:22:21.393Z,404.57
2019-02-25T19:24:50.512Z,443.33
2019-02-25T19:27:18.444Z,427.37
2019-02-25T19:29:47.692Z,466.87
2019-02-25T19:32:16.457Z,430.40
2019-02-25T19:34:44.809Z,450.47
2019-02-25T19:37:14.345Z,432.13
2019-02-25T19:39:43.821Z,444.90
2019-02-25T19:42:15.164Z,446.20
2019-02-25T19:44:40.954Z,441.47
2019-02-25T19:47:09.871Z,449.53
2019-02-25T19:49:38.986Z,430.53
2019-02-25T19:52:07.947Z,406.33
2019-02-25T19:54:38.452Z,471.63
2019-02-25T19:57:06.388Z,424.33
2019-02-25T19:59:33.888Z,435.30
2019-02-25T20:02:02.254Z,412.70
2019-02-25T20:04:33.468Z,444.10
2019-02-25T20:07:00.912Z,423.33
2019-02-25T20:09:28.965Z,440.37
2019-02-25T20:11:57.325Z,429.10
2019-02-25T20:14:25.765Z,436.40
2019-02-25T20:16:53.968Z,431.47
2019-02-25T20:19:21.545Z,460.40
2019-02-25T20:21:50.725Z,421.80
2019-02-25T20:24:19.481Z,429.97
2019-02-25T20:26:50.634Z,415.93
2019-02-25T20:29:18.701Z,448.23
2019-02-25T20:31:47.626Z,423.53
2019-02-25T20:34:18.431Z,412.93
2019-02-25T20:36:46.479Z,408.70
2019-02-25T20:39:17.019Z,448.77
2019-02-25T20:41:45.899Z,419.10
2019-02-25T20:44:18.571Z,425.23
2019-02-25T20:46:50.684Z,458.03
2019-02-25T20:49:18.376Z,442.20
2019-02-25T20:51:49.865Z,424.20
2019-02-25T20:54:18.578Z,458.73
2019-02-25T20:56:49.564Z,403.43
2019-02-25T20:59:20.967Z,442.87
2019-02-25T21:01:51.094Z,420.20
2019-02-25T21:04:21.829Z,445.57
2019-02-25T21:06:52.161Z,413.53
2019-02-25T21:09:20.875Z,461.20
2019-02-25T21:11:48.418Z,410.33
2019-02-25T21:14:15.950Z,444.07
2019-02-25T21:16:44.330Z,406.10
2019-02-25T21:19:14.433Z,419.03
2019-02-25T21:21:41.500Z,412.53
2019-02-25T21:24:11.275Z,427.77
2019-02-25T21:26:39.227Z,404.17
2019-02-25T21:29:09.727Z,416.63
2019-02-25T21:31:43.228Z,413.07
2019-02-25T21:34:15.337Z,435.67
2019-02-25T21:36:40.433Z,426.43
2019-02-25T21:39:11.702Z,420.83
2019-02-25T21:41:43.475Z,391.27
2019-02-25T21:44:14.241Z,404.20
2019-02-25T21:46:40.669Z,388.10
2019-02-25T21:49:08.476Z,437.03
2019-02-25T21:51:36.892Z,402.10
2019-02-25T21:54:06.641Z,408.83
2019-02-25T21:56:34.584Z,385.37
2019-02-25T21:59:02.327Z,418.37
2019-02-25T22:01:31.931Z,398.33
2019-02-25T22:03:59.843Z,395.50
2019-02-25T22:06:29.633Z,403.40
2019-02-25T22:09:10.680Z,384.57
2019-02-25T22:11:40.702Z,404.40
2019-02-25T22:14:09.969Z,453.80
2019-02-25T22:16:43.994Z,431.37
2019-02-25T22:19:09.866Z,482.53
2019-02-25T22:21:37.961Z,402.60
2019-02-25T22:24:07.469Z,421.40
2019-02-25T22:26:35.667Z,407.37
2019-02-25T22:29:04.532Z,428.77
2019-02-25T22:31:34.672Z,401.57
2019-02-25T22:34:01.809Z,417.73
2019-02-25T22:36:29.301Z,420.03
2019-02-25T22:38:58.955Z,419.17
2019-02-25T22:41:28.063Z,420.37
2019-02-25T22:43:55.681Z,417.13
2019-02-25T22:46:23.544Z,403.20
2019-02-25T22:48:53.990Z,410.33
2019-02-25T22:51:24.281Z,429.93
2019-02-25T22:53:51.639Z,400.20
2019-02-25T22:56:21.476Z,427.73
2019-02-25T22:58:48.609Z,400.90
2019-02-25T23:01:18.045Z,408.77
2019-02-25T23:03:47.946Z,393.10
2019-02-25T23:06:16.285Z,406.70
2019-02-25T23:08:46.446Z,399.93
2019-02-25T23:11:16.565Z,406.93
2019-02-25T23:13:45.713Z,406.00
2019-02-25T23:16:15.494Z,408.03
2019-02-25T23:18:47.736Z,413.07
2019-02-25T23:21:23.169Z,397.90
2019-02-25T23:23:42.819Z,386.03
2019-02-25T23:26:12.136Z,406.93
2019-02-25T23:28:39.887Z,398.47
2019-02-25T23:31:07.336Z,381.87
2019-02-25T23:33:38.128Z,412.80
2019-02-25T23:36:04.229Z,365.37
2019-02-25T23:38:31.885Z,421.57
2019-02-25T23:41:01.227Z,388.77
2019-02-25T23:43:28.677Z,384.97
2019-02-25T23:45:58.002Z,400.33
2019-02-25T23:48:30.213Z,404.83
2019-02-25T23:50:57.194Z,402.40
2019-02-25T23:53:26.645Z,381.73
2019-02-25T23:55:54.768Z,371.17
2019-02-25T23:58:24.119Z,380.47
